sensor_id;sensor_type;location;lat;lon;timestamp;P1;durP1;ratioP1;P2;durP2;ratioP2
25649;SDS011;13505;45.196;5.696;2023-09-19T04:33:06;6.38;;;4.57;;
25649;SDS011;13505;45.196;5.696;2023-09-19T04:37:57;5.57;;;3.80;;
25649;SDS011;13505;45.196;5.696;2023-09-19T04:42:53;9.00;;;4.50;;
25649;SDS011;13505;45.196;5.696;2023-09-19T04:47:46;7.80;;;4.33;;
25649;SDS011;13505;45.196;5.696;2023-09-19T04:52:38;7.53;;;4.70;;
25649;SDS011;13505;45.196;5.696;2023-09-19T04:57:34;10.80;;;4.90;;
25649;SDS011;13505;45.196;5.696;2023-09-19T05:02:28;8.45;;;4.60;;
25649;SDS011;13505;45.196;5.696;2023-09-19T05:07:20;11.57;;;5.03;;
25649;SDS011;13505;45.196;5.696;2023-09-19T05:12:15;11.18;;;4.75;;
25649;SDS011;13505;45.196;5.696;2023-09-19T05:17:09;9.57;;;5.05;;
25649;SDS011;13505;45.196;5.696;2023-09-19T05:22:00;13.95;;;5.35;;
25649;SDS011;13505;45.196;5.696;2023-09-19T05:26:50;10.98;;;5.80;;
25649;SDS011;13505;45.196;5.696;2023-09-19T05:31:40;10.55;;;5.25;;
25649;SDS011;13505;45.196;5.696;2023-09-19T05:36:32;10.85;;;4.93;;
25649;SDS011;13505;45.196;5.696;2023-09-19T05:41:24;9.10;;;4.68;;
25649;SDS011;13505;45.196;5.696;2023-09-19T05:46:14;10.93;;;5.82;;
25649;SDS011;13505;45.196;5.696;2023-09-19T05:51:06;14.80;;;5.93;;
25649;SDS011;13505;45.196;5.696;2023-09-19T05:55:57;9.00;;;5.70;;
25649;SDS011;13505;45.196;5.696;2023-09-19T06:00:48;14.18;;;5.35;;
25649;SDS011;13505;45.196;5.696;2023-09-19T06:05:39;12.70;;;4.80;;
25649;SDS011;13505;45.196;5.696;2023-09-19T06:10:31;14.00;;;5.57;;
25649;SDS011;13505;45.196;5.696;2023-09-19T06:15:22;9.52;;;4.93;;
25649;SDS011;13505;45.196;5.696;2023-09-19T06:20:16;9.07;;;5.22;;
25649;SDS011;13505;45.196;5.696;2023-09-19T06:25:07;10.20;;;5.00;;
25649;SDS011;13505;45.196;5.696;2023-09-19T06:30:01;10.57;;;6.90;;
25649;SDS011;13505;45.196;5.696;2023-09-19T06:34:52;11.35;;;5.68;;
25649;SDS011;13505;45.196;5.696;2023-09-19T06:39:44;7.95;;;4.88;;
25649;SDS011;13505;45.196;5.696;2023-09-19T06:44:34;10.27;;;4.85;;
25649;SDS011;13505;45.196;5.696;2023-09-19T06:49:24;10.67;;;4.67;;
25649;SDS011;13505;45.196;5.696;2023-09-19T06:54:15;8.43;;;5.27;;
25649;SDS011;13505;45.196;5.696;2023-09-19T06:59:06;10.10;;;5.90;;
25649;SDS011;13505;45.196;5.696;2023-09-19T07:03:57;11.20;;;6.10;;
25649;SDS011;13505;45.196;5.696;2023-09-19T07:08:47;10.88;;;5.20;;
25649;SDS011;13505;45.196;5.696;2023-09-19T07:13:38;18.23;;;7.28;;
25649;SDS011;13505;45.196;5.696;2023-09-19T07:18:29;10.45;;;5.03;;
25649;SDS011;13505;45.196;5.696;2023-09-19T07:23:19;8.23;;;4.88;;
25649;SDS011;13505;45.196;5.696;2023-09-19T07:28:12;6.68;;;4.95;;
25649;SDS011;13505;45.196;5.696;2023-09-19T07:33:02;7.20;;;4.65;;
25649;SDS011;13505;45.196;5.696;2023-09-19T07:37:55;10.68;;;5.53;;
25649;SDS011;13505;45.196;5.696;2023-09-19T07:42:46;9.45;;;5.20;;
25649;SDS011;13505;45.196;5.696;2023-09-19T07:47:36;8.98;;;5.30;;
25649;SDS011;13505;45.196;5.696;2023-09-19T07:52:27;7.23;;;4.53;;
25649;SDS011;13505;45.196;5.696;2023-09-19T07:57:17;10.95;;;4.80;;
25649;SDS011;13505;45.196;5.696;2023-09-19T08:02:08;9.97;;;4.57;;
25649;SDS011;13505;45.196;5.696;2023-09-19T08:07:05;8.80;;;4.00;;
25649;SDS011;13505;45.196;5.696;2023-09-19T08:11:55;10.00;;;4.45;;
25649;SDS011;13505;45.196;5.696;2023-09-19T08:16:46;11.73;;;4.47;;
25649;SDS011;13505;45.196;5.696;2023-09-19T08:21:36;8.68;;;3.67;;
25649;SDS011;13505;45.196;5.696;2023-09-19T08:26:27;6.18;;;3.65;;
25649;SDS011;13505;45.196;5.696;2023-09-19T08:31:18;10.02;;;3.33;;
25649;SDS011;13505;45.196;5.696;2023-09-19T08:36:08;6.57;;;3.60;;
25649;SDS011;13505;45.196;5.696;2023-09-19T08:40:59;6.05;;;3.30;;
25649;SDS011;13505;45.196;5.696;2023-09-19T08:45:52;5.22;;;2.92;;
25649;SDS011;13505;45.196;5.696;2023-09-19T08:51:10;6.22;;;3.17;;
25649;SDS011;13505;45.196;5.696;2023-09-19T08:56:07;13.82;;;3.88;;
25649;SDS011;13505;45.196;5.696;2023-09-19T09:01:00;6.07;;;3.90;;
25649;SDS011;13505;45.196;5.696;2023-09-19T09:05:51;10.73;;;3.70;;
25649;SDS011;13505;45.196;5.696;2023-09-19T09:10:44;4.18;;;3.47;;
25649;SDS011;13505;45.196;5.696;2023-09-19T09:15:37;3.95;;;2.85;;
25649;SDS011;13505;45.196;5.696;2023-09-19T09:20:28;8.27;;;3.85;;
25649;SDS011;13505;45.196;5.696;2023-09-19T09:25:19;7.63;;;3.75;;
25649;SDS011;13505;45.196;5.696;2023-09-19T09:30:32;4.65;;;3.33;;
25649;SDS011;13505;45.196;5.696;2023-09-19T09:35:23;9.23;;;3.72;;
25649;SDS011;13505;45.196;5.696;2023-09-19T09:40:14;8.63;;;4.68;;
25649;SDS011;13505;45.196;5.696;2023-09-19T09:45:14;10.02;;;4.38;;
25649;SDS011;13505;45.196;5.696;2023-09-19T09:50:05;8.30;;;3.25;;
25649;SDS011;13505;45.196;5.696;2023-09-19T09:55:07;5.03;;;2.92;;
25649;SDS011;13505;45.196;5.696;2023-09-19T09:59:59;4.97;;;3.10;;
25649;SDS011;13505;45.196;5.696;2023-09-19T10:05:13;6.90;;;4.90;;
25649;SDS011;13505;45.196;5.696;2023-09-19T10:10:34;8.18;;;4.00;;
25649;SDS011;13505;45.196;5.696;2023-09-19T10:15:34;8.82;;;4.43;;
25649;SDS011;13505;45.196;5.696;2023-09-19T10:20:26;5.93;;;3.58;;
25649;SDS011;13505;45.196;5.696;2023-09-19T10:25:26;7.65;;;4.00;;
25649;SDS011;13505;45.196;5.696;2023-09-19T10:30:18;7.18;;;3.65;;
25649;SDS011;13505;45.196;5.696;2023-09-19T10:35:11;6.68;;;3.40;;
25649;SDS011;13505;45.196;5.696;2023-09-19T10:40:04;4.78;;;3.03;;
25649;SDS011;13505;45.196;5.696;2023-09-19T10:44:58;5.55;;;2.28;;
25649;SDS011;13505;45.196;5.696;2023-09-19T10:49:50;5.53;;;2.08;;
25649;SDS011;13505;45.196;5.696;2023-09-19T10:54:41;3.45;;;1.70;;
25649;SDS011;13505;45.196;5.696;2023-09-19T10:59:39;3.80;;;1.97;;
25649;SDS011;13505;45.196;5.696;2023-09-19T11:05:13;3.35;;;2.30;;
25649;SDS011;13505;45.196;5.696;2023-09-19T11:10:04;5.60;;;1.85;;
25649;SDS011;13505;45.196;5.696;2023-09-19T11:14:54;3.53;;;1.90;;
25649;SDS011;13505;45.196;5.696;2023-09-19T11:30:38;3.45;;;2.17;;
25649;SDS011;13505;45.196;5.696;2023-09-19T11:35:58;2.60;;;1.92;;
25649;SDS011;13505;45.196;5.696;2023-09-19T11:46:10;2.92;;;1.55;;
25649;SDS011;13505;45.196;5.696;2023-09-19T11:51:01;3.42;;;2.15;;
25649;SDS011;13505;45.196;5.696;2023-09-19T11:55:57;2.85;;;2.15;;
25649;SDS011;13505;45.196;5.696;2023-09-19T12:00:54;5.43;;;1.95;;
25649;SDS011;13505;45.196;5.696;2023-09-19T12:05:47;3.58;;;1.83;;
25649;SDS011;13505;45.196;5.696;2023-09-19T12:11:11;3.57;;;1.93;;
25649;SDS011;13505;45.196;5.696;2023-09-19T12:15:55;1.75;;;1.35;;
25649;SDS011;13505;45.196;5.696;2023-09-19T12:20:45;2.22;;;1.92;;
25649;SDS011;13505;45.196;5.696;2023-09-19T12:25:43;1.23;;;0.95;;
25649;SDS011;13505;45.196;5.696;2023-09-19T12:30:37;1.40;;;0.98;;
25649;SDS011;13505;45.196;5.696;2023-09-19T12:35:31;1.25;;;1.02;;
25649;SDS011;13505;45.196;5.696;2023-09-19T12:40:26;1.52;;;1.05;;
25649;SDS011;13505;45.196;5.696;2023-09-19T12:45:22;3.42;;;1.13;;
25649;SDS011;13505;45.196;5.696;2023-09-19T12:50:13;4.13;;;1.10;;
25649;SDS011;13505;45.196;5.696;2023-09-19T12:55:18;1.70;;;0.95;;
25649;SDS011;13505;45.196;5.696;2023-09-19T13:00:12;1.52;;;1.25;;
25649;SDS011;13505;45.196;5.696;2023-09-19T13:05:04;1.42;;;0.93;;
25649;SDS011;13505;45.196;5.696;2023-09-19T13:10:03;1.10;;;0.95;;
25649;SDS011;13505;45.196;5.696;2023-09-19T13:15:07;2.70;;;1.05;;
25649;SDS011;13505;45.196;5.696;2023-09-19T13:25:20;1.75;;;1.10;;
25649;SDS011;13505;45.196;5.696;2023-09-19T13:30:12;2.05;;;1.10;;
25649;SDS011;13505;45.196;5.696;2023-09-19T13:35:03;3.10;;;1.13;;
25649;SDS011;13505;45.196;5.696;2023-09-19T13:39:55;2.38;;;1.23;;
25649;SDS011;13505;45.196;5.696;2023-09-19T13:44:45;3.13;;;1.50;;
25649;SDS011;13505;45.196;5.696;2023-09-19T13:49:36;2.55;;;1.20;;
25649;SDS011;13505;45.196;5.696;2023-09-19T13:54:27;0.98;;;0.93;;
25649;SDS011;13505;45.196;5.696;2023-09-19T13:59:17;1.80;;;1.20;;
25649;SDS011;13505;45.196;5.696;2023-09-19T14:04:07;1.80;;;1.15;;
25649;SDS011;13505;45.196;5.696;2023-09-19T14:08:58;2.47;;;1.33;;
25649;SDS011;13505;45.196;5.696;2023-09-19T14:13:48;1.80;;;1.50;;
25649;SDS011;13505;45.196;5.696;2023-09-19T14:18:38;7.63;;;1.50;;
25649;SDS011;13505;45.196;5.696;2023-09-19T14:23:34;2.20;;;1.50;;
25649;SDS011;13505;45.196;5.696;2023-09-19T14:28:26;1.33;;;1.17;;
25649;SDS011;13505;45.196;5.696;2023-09-19T14:33:16;2.40;;;1.40;;
25649;SDS011;13505;45.196;5.696;2023-09-19T14:38:06;1.90;;;1.40;;
25649;SDS011;13505;45.196;5.696;2023-09-19T14:42:57;1.33;;;1.20;;
25649;SDS011;13505;45.196;5.696;2023-09-19T14:47:47;1.97;;;1.20;;
25649;SDS011;13505;45.196;5.696;2023-09-19T14:52:39;3.00;;;1.40;;
25649;SDS011;13505;45.196;5.696;2023-09-19T14:57:29;2.22;;;1.48;;
25649;SDS011;13505;45.196;5.696;2023-09-19T15:02:20;2.00;;;1.30;;
25649;SDS011;13505;45.196;5.696;2023-09-19T15:07:10;2.70;;;1.20;;
25649;SDS011;13505;45.196;5.696;2023-09-19T15:12:01;1.93;;;1.50;;
25649;SDS011;13505;45.196;5.696;2023-09-19T15:16:52;2.05;;;1.38;;
25649;SDS011;13505;45.196;5.696;2023-09-19T15:21:43;2.47;;;1.10;;
25649;SDS011;13505;45.196;5.696;2023-09-19T15:26:33;1.65;;;1.35;;
25649;SDS011;13505;45.196;5.696;2023-09-19T15:31:23;1.88;;;1.50;;
25649;SDS011;13505;45.196;5.696;2023-09-19T15:36:14;4.63;;;1.70;;
25649;SDS011;13505;45.196;5.696;2023-09-19T15:41:05;3.38;;;1.52;;
25649;SDS011;13505;45.196;5.696;2023-09-19T15:45:57;1.70;;;1.30;;
25649;SDS011;13505;45.196;5.696;2023-09-19T15:50:50;1.40;;;1.30;;
25649;SDS011;13505;45.196;5.696;2023-09-19T15:55:41;2.45;;;1.23;;
25649;SDS011;13505;45.196;5.696;2023-09-19T16:00:32;3.95;;;1.30;;
25649;SDS011;13505;45.196;5.696;2023-09-19T16:05:26;2.55;;;1.38;;
25649;SDS011;13505;45.196;5.696;2023-09-19T16:10:18;3.72;;;1.30;;
25649;SDS011;13505;45.196;5.696;2023-09-19T16:15:08;2.55;;;1.40;;
25649;SDS011;13505;45.196;5.696;2023-09-19T16:20:03;2.72;;;1.50;;
25649;SDS011;13505;45.196;5.696;2023-09-19T16:24:57;4.05;;;1.52;;
25649;SDS011;13505;45.196;5.696;2023-09-19T16:29:48;4.07;;;1.63;;
25649;SDS011;13505;45.196;5.696;2023-09-19T16:34:38;1.60;;;1.23;;
25649;SDS011;13505;45.196;5.696;2023-09-19T16:39:28;4.78;;;1.65;;
25649;SDS011;13505;45.196;5.696;2023-09-19T16:44:19;1.60;;;1.30;;
25649;SDS011;13505;45.196;5.696;2023-09-19T16:49:10;4.55;;;1.50;;
25649;SDS011;13505;45.196;5.696;2023-09-19T16:54:01;1.73;;;1.43;;
25649;SDS011;13505;45.196;5.696;2023-09-19T16:58:52;3.80;;;1.63;;
25649;SDS011;13505;45.196;5.696;2023-09-19T17:03:43;5.90;;;1.55;;
25649;SDS011;13505;45.196;5.696;2023-09-19T17:08:34;4.00;;;1.33;;
25649;SDS011;13505;45.196;5.696;2023-09-19T17:13:24;4.00;;;1.40;;
25649;SDS011;13505;45.196;5.696;2023-09-19T17:18:14;5.18;;;1.77;;
25649;SDS011;13505;45.196;5.696;2023-09-19T17:23:05;3.77;;;1.57;;
25649;SDS011;13505;45.196;5.696;2023-09-19T17:27:55;7.40;;;1.70;;
25649;SDS011;13505;45.196;5.696;2023-09-19T17:32:46;2.80;;;1.35;;
25649;SDS011;13505;45.196;5.696;2023-09-19T17:37:36;3.13;;;1.50;;
25649;SDS011;13505;45.196;5.696;2023-09-19T17:42:28;5.80;;;1.67;;
25649;SDS011;13505;45.196;5.696;2023-09-19T17:47:19;2.72;;;1.55;;
25649;SDS011;13505;45.196;5.696;2023-09-19T17:52:12;5.88;;;1.80;;
25649;SDS011;13505;45.196;5.696;2023-09-19T17:57:02;2.10;;;1.50;;
25649;SDS011;13505;45.196;5.696;2023-09-19T18:01:53;4.18;;;1.52;;
25649;SDS011;13505;45.196;5.696;2023-09-19T18:06:43;8.70;;;1.70;;
25649;SDS011;13505;45.196;5.696;2023-09-19T18:11:34;3.42;;;1.40;;
25649;SDS011;13505;45.196;5.696;2023-09-19T18:16:24;3.58;;;1.60;;
25649;SDS011;13505;45.196;5.696;2023-09-19T18:21:17;2.05;;;1.27;;
25649;SDS011;13505;45.196;5.696;2023-09-19T18:26:09;7.82;;;1.40;;
25649;SDS011;13505;45.196;5.696;2023-09-19T18:31:04;6.35;;;1.42;;
25649;SDS011;13505;45.196;5.696;2023-09-19T18:36:03;3.92;;;1.33;;
25649;SDS011;13505;45.196;5.696;2023-09-19T18:40:54;2.78;;;1.52;;
25649;SDS011;13505;45.196;5.696;2023-09-19T18:45:44;2.27;;;1.43;;
25649;SDS011;13505;45.196;5.696;2023-09-19T18:50:44;2.30;;;1.40;;
25649;SDS011;13505;45.196;5.696;2023-09-19T18:55:35;1.90;;;1.33;;
25649;SDS011;13505;45.196;5.696;2023-09-19T19:00:25;5.07;;;1.30;;
25649;SDS011;13505;45.196;5.696;2023-09-19T19:05:18;4.10;;;1.60;;
25649;SDS011;13505;45.196;5.696;2023-09-19T19:10:08;2.65;;;1.50;;
25649;SDS011;13505;45.196;5.696;2023-09-19T19:14:59;3.80;;;1.90;;
25649;SDS011;13505;45.196;5.696;2023-09-19T19:19:50;2.65;;;1.80;;
25649;SDS011;13505;45.196;5.696;2023-09-19T19:24:41;5.28;;;1.88;;
25649;SDS011;13505;45.196;5.696;2023-09-19T19:29:32;3.70;;;2.00;;
25649;SDS011;13505;45.196;5.696;2023-09-19T19:34:22;8.43;;;2.40;;
25649;SDS011;13505;45.196;5.696;2023-09-19T19:39:14;3.17;;;2.47;;
25649;SDS011;13505;45.196;5.696;2023-09-19T19:44:05;5.90;;;2.70;;
25649;SDS011;13505;45.196;5.696;2023-09-19T19:48:57;5.82;;;1.98;;
25649;SDS011;13505;45.196;5.696;2023-09-19T19:53:48;6.30;;;1.70;;
25649;SDS011;13505;45.196;5.696;2023-09-19T19:58:38;4.77;;;1.73;;
25649;SDS011;13505;45.196;5.696;2023-09-19T20:03:29;2.23;;;1.53;;
25649;SDS011;13505;45.196;5.696;2023-09-19T20:08:22;5.10;;;2.03;;
25649;SDS011;13505;45.196;5.696;2023-09-19T20:13:17;6.65;;;2.33;;
25649;SDS011;13505;45.196;5.696;2023-09-19T20:18:08;3.35;;;2.20;;
25649;SDS011;13505;45.196;5.696;2023-09-19T20:23:02;5.88;;;2.00;;
25649;SDS011;13505;45.196;5.696;2023-09-19T20:27:54;2.72;;;2.10;;
25649;SDS011;13505;45.196;5.696;2023-09-19T20:32:48;3.83;;;2.03;;
25649;SDS011;13505;45.196;5.696;2023-09-19T20:37:38;4.05;;;1.92;;
25649;SDS011;13505;45.196;5.696;2023-09-19T20:42:29;3.17;;;1.83;;
25649;SDS011;13505;45.196;5.696;2023-09-19T20:47:19;10.10;;;2.20;;
25649;SDS011;13505;45.196;5.696;2023-09-19T20:52:10;7.20;;;2.10;;
25649;SDS011;13505;45.196;5.696;2023-09-19T20:57:00;4.05;;;2.63;;
25649;SDS011;13505;45.196;5.696;2023-09-19T21:01:50;5.27;;;2.13;;
25649;SDS011;13505;45.196;5.696;2023-09-19T21:06:41;6.00;;;2.22;;
25649;SDS011;13505;45.196;5.696;2023-09-19T21:11:31;2.97;;;1.93;;
25649;SDS011;13505;45.196;5.696;2023-09-19T21:16:22;2.35;;;1.98;;
25649;SDS011;13505;45.196;5.696;2023-09-19T21:21:12;5.38;;;2.10;;
25649;SDS011;13505;45.196;5.696;2023-09-19T21:26:03;2.90;;;1.90;;
25649;SDS011;13505;45.196;5.696;2023-09-19T21:31:03;5.68;;;1.92;;
25649;SDS011;13505;45.196;5.696;2023-09-19T21:35:55;4.78;;;1.80;;
25649;SDS011;13505;45.196;5.696;2023-09-19T21:40:46;3.53;;;1.80;;
25649;SDS011;13505;45.196;5.696;2023-09-19T21:45:36;3.23;;;1.90;;
25649;SDS011;13505;45.196;5.696;2023-09-19T21:50:27;5.07;;;2.22;;
25649;SDS011;13505;45.196;5.696;2023-09-19T21:55:19;3.65;;;2.20;;
